KRT weather

Khartoum International Airport
Khartoum, Khartoum State, Sudan

Public forecast

Using degrees Celsius for public forecast. Weather courtesy of forecast.io.

Current aviation weather report (METAR) for Khartoum International Airport

Retrieved 2019/12/10 08:30 UTC (0 seconds ago):

HSSS 100830Z 01011KT CAVOK 27/03 Q1015 NOSIG

Aviation forecast (TAF) for Khartoum International Airport

Retrieved 2019/12/10 06:55 UTC (1 hour ago):

TAF HSSS 100500Z 1006/1112 34009KT CAVOK